sensor_id;sensor_type;location;lat;lon;timestamp;pressure;altitude;pressure_sealevel;temperature;humidity
50103;BME280;35993;52.604;10.078;2023-02-28T00:00:05;102754.75;;;-1.44;100.00
50103;BME280;35993;52.604;10.078;2023-02-28T00:02:43;102760.13;;;-1.46;100.00
50103;BME280;35993;52.604;10.078;2023-02-28T00:05:10;102752.34;;;-1.49;100.00
50103;BME280;35993;52.604;10.078;2023-02-28T00:07:36;102749.56;;;-1.48;100.00
50103;BME280;35993;52.604;10.078;2023-02-28T00:10:03;102759.09;;;-1.43;100.00
50103;BME280;35993;52.604;10.078;2023-02-28T00:12:29;102754.50;;;-1.56;100.00
50103;BME280;35993;52.604;10.078;2023-02-28T00:14:55;102752.59;;;-1.54;100.00
50103;BME280;35993;52.604;10.078;2023-02-28T00:17:20;102751.88;;;-1.57;100.00
50103;BME280;35993;52.604;10.078;2023-02-28T00:19:48;102754.84;;;-1.62;100.00
50103;BME280;35993;52.604;10.078;2023-02-28T00:22:15;102751.38;;;-1.64;100.00
50103;BME280;35993;52.604;10.078;2023-02-28T00:24:41;102754.56;;;-1.57;100.00
50103;BME280;35993;52.604;10.078;2023-02-28T00:27:07;102757.06;;;-1.54;100.00
50103;BME280;35993;52.604;10.078;2023-02-28T00:29:32;102754.94;;;-1.63;100.00
50103;BME280;35993;52.604;10.078;2023-02-28T00:31:58;102755.53;;;-1.58;100.00
50103;BME280;35993;52.604;10.078;2023-02-28T00:34:23;102749.50;;;-1.62;100.00
50103;BME280;35993;52.604;10.078;2023-02-28T00:36:49;102752.84;;;-1.74;100.00
50103;BME280;35993;52.604;10.078;2023-02-28T00:39:15;102755.88;;;-1.65;100.00
50103;BME280;35993;52.604;10.078;2023-02-28T00:41:40;102749.22;;;-1.57;100.00
50103;BME280;35993;52.604;10.078;2023-02-28T00:44:06;102745.72;;;-1.58;100.00
50103;BME280;35993;52.604;10.078;2023-02-28T00:46:32;102749.25;;;-1.73;100.00
50103;BME280;35993;52.604;10.078;2023-02-28T00:48:57;102758.63;;;-1.66;100.00
50103;BME280;35993;52.604;10.078;2023-02-28T00:51:23;102754.75;;;-1.60;100.00
50103;BME280;35993;52.604;10.078;2023-02-28T00:53:48;102748.72;;;-1.64;100.00
50103;BME280;35993;52.604;10.078;2023-02-28T00:56:15;102752.41;;;-1.67;100.00
50103;BME280;35993;52.604;10.078;2023-02-28T00:58:41;102746.25;;;-1.67;100.00
50103;BME280;35993;52.604;10.078;2023-02-28T01:01:07;102751.47;;;-1.66;100.00
50103;BME280;35993;52.604;10.078;2023-02-28T01:03:33;102744.44;;;-1.67;100.00
50103;BME280;35993;52.604;10.078;2023-02-28T01:05:58;102751.06;;;-1.74;100.00
50103;BME280;35993;52.604;10.078;2023-02-28T01:08:24;102749.25;;;-1.73;100.00
50103;BME280;35993;52.604;10.078;2023-02-28T01:10:51;102753.88;;;-1.77;100.00
50103;BME280;35993;52.604;10.078;2023-02-28T01:13:17;102748.56;;;-1.77;100.00
50103;BME280;35993;52.604;10.078;2023-02-28T01:15:49;102751.50;;;-1.82;100.00
50103;BME280;35993;52.604;10.078;2023-02-28T01:18:15;102753.63;;;-1.88;100.00
50103;BME280;35993;52.604;10.078;2023-02-28T01:20:41;102751.22;;;-1.93;100.00
50103;BME280;35993;52.604;10.078;2023-02-28T01:23:07;102747.25;;;-1.86;100.00
50103;BME280;35993;52.604;10.078;2023-02-28T01:25:36;102745.28;;;-1.82;100.00
50103;BME280;35993;52.604;10.078;2023-02-28T01:28:04;102755.53;;;-1.90;100.00
50103;BME280;35993;52.604;10.078;2023-02-28T01:30:31;102749.75;;;-1.99;100.00
50103;BME280;35993;52.604;10.078;2023-02-28T01:32:57;102747.09;;;-1.99;100.00
50103;BME280;35993;52.604;10.078;2023-02-28T01:35:24;102755.34;;;-2.03;100.00
50103;BME280;35993;52.604;10.078;2023-02-28T01:37:50;102754.78;;;-2.10;100.00
50103;BME280;35993;52.604;10.078;2023-02-28T01:40:15;102758.66;;;-2.16;100.00
50103;BME280;35993;52.604;10.078;2023-02-28T01:42:41;102755.66;;;-2.09;100.00
50103;BME280;35993;52.604;10.078;2023-02-28T01:45:19;102750.50;;;-2.12;100.00
50103;BME280;35993;52.604;10.078;2023-02-28T01:47:50;102752.72;;;-2.21;100.00
50103;BME280;35993;52.604;10.078;2023-02-28T01:50:19;102746.81;;;-2.26;100.00
50103;BME280;35993;52.604;10.078;2023-02-28T01:52:47;102746.72;;;-2.24;100.00
50103;BME280;35993;52.604;10.078;2023-02-28T01:55:15;102743.63;;;-2.17;100.00
50103;BME280;35993;52.604;10.078;2023-02-28T01:57:56;102745.13;;;-2.11;100.00
50103;BME280;35993;52.604;10.078;2023-02-28T02:00:24;102747.50;;;-2.06;100.00
50103;BME280;35993;52.604;10.078;2023-02-28T02:02:57;102748.38;;;-2.06;100.00
50103;BME280;35993;52.604;10.078;2023-02-28T02:05:29;102753.00;;;-2.09;100.00
50103;BME280;35993;52.604;10.078;2023-02-28T02:08:01;102749.56;;;-2.27;100.00
50103;BME280;35993;52.604;10.078;2023-02-28T02:10:41;102752.81;;;-2.22;100.00
50103;BME280;35993;52.604;10.078;2023-02-28T02:13:13;102744.66;;;-2.19;100.00
50103;BME280;35993;52.604;10.078;2023-02-28T02:16:13;102739.25;;;-2.18;100.00
50103;BME280;35993;52.604;10.078;2023-02-28T02:18:47;102731.22;;;-2.16;100.00
50103;BME280;35993;52.604;10.078;2023-02-28T02:37:41;102734.94;;;-2.36;100.00
50103;BME280;35993;52.604;10.078;2023-02-28T02:40:25;102729.66;;;-2.71;100.00
50103;BME280;35993;52.604;10.078;2023-02-28T02:43:05;102738.84;;;-2.77;100.00
50103;BME280;35993;52.604;10.078;2023-02-28T02:45:55;102731.69;;;-2.59;100.00
50103;BME280;35993;52.604;10.078;2023-02-28T02:48:26;102736.53;;;-2.50;100.00
50103;BME280;35993;52.604;10.078;2023-02-28T02:50:55;102742.63;;;-2.48;100.00
50103;BME280;35993;52.604;10.078;2023-02-28T02:53:28;102731.06;;;-2.47;100.00
50103;BME280;35993;52.604;10.078;2023-02-28T02:55:57;102727.00;;;-2.54;100.00
50103;BME280;35993;52.604;10.078;2023-02-28T02:58:27;102735.16;;;-2.57;100.00
50103;BME280;35993;52.604;10.078;2023-02-28T03:00:57;102735.56;;;-2.65;100.00
50103;BME280;35993;52.604;10.078;2023-02-28T03:03:25;102734.19;;;-2.56;100.00
50103;BME280;35993;52.604;10.078;2023-02-28T03:05:58;102727.84;;;-2.53;100.00
50103;BME280;35993;52.604;10.078;2023-02-28T03:08:25;102734.34;;;-2.59;100.00
50103;BME280;35993;52.604;10.078;2023-02-28T03:10:52;102734.78;;;-2.51;100.00
50103;BME280;35993;52.604;10.078;2023-02-28T03:19:17;102725.53;;;-2.77;100.00
50103;BME280;35993;52.604;10.078;2023-02-28T03:22:08;102726.47;;;-2.78;100.00
50103;BME280;35993;52.604;10.078;2023-02-28T03:28:22;102725.59;;;-2.61;100.00
50103;BME280;35993;52.604;10.078;2023-02-28T03:31:03;102727.63;;;-2.66;100.00
50103;BME280;35993;52.604;10.078;2023-02-28T03:33:39;102721.34;;;-2.81;100.00
50103;BME280;35993;52.604;10.078;2023-02-28T03:36:12;102720.47;;;-2.82;100.00
50103;BME280;35993;52.604;10.078;2023-02-28T03:38:47;102722.59;;;-2.88;100.00
50103;BME280;35993;52.604;10.078;2023-02-28T03:41:23;102722.41;;;-2.85;100.00
50103;BME280;35993;52.604;10.078;2023-02-28T03:43:58;102726.88;;;-2.86;100.00
50103;BME280;35993;52.604;10.078;2023-02-28T03:46:29;102728.34;;;-2.80;100.00
50103;BME280;35993;52.604;10.078;2023-02-28T03:49:09;102729.38;;;-2.83;100.00
50103;BME280;35993;52.604;10.078;2023-02-28T03:51:40;102731.44;;;-3.05;100.00
50103;BME280;35993;52.604;10.078;2023-02-28T03:54:12;102731.81;;;-3.13;100.00
50103;BME280;35993;52.604;10.078;2023-02-28T04:02:02;102738.16;;;-3.16;100.00
50103;BME280;35993;52.604;10.078;2023-02-28T04:04:28;102741.72;;;-3.17;100.00
50103;BME280;35993;52.604;10.078;2023-02-28T04:07:02;102744.09;;;-3.10;100.00
50103;BME280;35993;52.604;10.078;2023-02-28T04:09:28;102740.63;;;-3.13;100.00
50103;BME280;35993;52.604;10.078;2023-02-28T04:11:54;102743.47;;;-3.16;100.00
50103;BME280;35993;52.604;10.078;2023-02-28T04:14:21;102740.50;;;-3.09;100.00
50103;BME280;35993;52.604;10.078;2023-02-28T04:16:47;102732.38;;;-3.06;100.00
50103;BME280;35993;52.604;10.078;2023-02-28T04:19:13;102740.72;;;-3.14;100.00
50103;BME280;35993;52.604;10.078;2023-02-28T04:21:40;102746.13;;;-3.16;100.00
50103;BME280;35993;52.604;10.078;2023-02-28T04:24:11;102739.94;;;-3.16;100.00
50103;BME280;35993;52.604;10.078;2023-02-28T04:26:43;102749.63;;;-3.15;100.00
50103;BME280;35993;52.604;10.078;2023-02-28T04:29:10;102750.47;;;-3.15;100.00
50103;BME280;35993;52.604;10.078;2023-02-28T04:31:36;102745.16;;;-3.32;100.00
50103;BME280;35993;52.604;10.078;2023-02-28T04:34:03;102739.22;;;-3.20;100.00
50103;BME280;35993;52.604;10.078;2023-02-28T04:36:28;102745.81;;;-3.09;100.00
50103;BME280;35993;52.604;10.078;2023-02-28T04:38:54;102739.53;;;-3.08;100.00
50103;BME280;35993;52.604;10.078;2023-02-28T04:41:22;102753.38;;;-3.19;100.00
50103;BME280;35993;52.604;10.078;2023-02-28T04:43:49;102752.75;;;-3.24;100.00
50103;BME280;35993;52.604;10.078;2023-02-28T04:46:14;102745.72;;;-3.25;100.00
50103;BME280;35993;52.604;10.078;2023-02-28T04:48:40;102750.56;;;-3.16;100.00
50103;BME280;35993;52.604;10.078;2023-02-28T04:51:09;102754.84;;;-3.14;100.00
50103;BME280;35993;52.604;10.078;2023-02-28T04:53:37;102746.25;;;-3.19;100.00
50103;BME280;35993;52.604;10.078;2023-02-28T04:56:03;102747.56;;;-3.27;100.00
50103;BME280;35993;52.604;10.078;2023-02-28T04:58:29;102748.84;;;-3.35;100.00
50103;BME280;35993;52.604;10.078;2023-02-28T05:01:05;102748.03;;;-3.37;100.00
50103;BME280;35993;52.604;10.078;2023-02-28T05:03:39;102745.19;;;-3.51;100.00
50103;BME280;35993;52.604;10.078;2023-02-28T05:06:06;102745.03;;;-3.48;100.00
50103;BME280;35993;52.604;10.078;2023-02-28T05:08:32;102746.59;;;-3.44;100.00
50103;BME280;35993;52.604;10.078;2023-02-28T05:10:58;102746.09;;;-3.33;100.00
50103;BME280;35993;52.604;10.078;2023-02-28T05:13:26;102751.41;;;-3.33;100.00
50103;BME280;35993;52.604;10.078;2023-02-28T05:15:52;102751.19;;;-3.28;100.00
50103;BME280;35993;52.604;10.078;2023-02-28T05:18:17;102750.47;;;-3.32;100.00
50103;BME280;35993;52.604;10.078;2023-02-28T05:20:43;102749.75;;;-3.36;100.00
50103;BME280;35993;52.604;10.078;2023-02-28T05:23:11;102750.00;;;-3.23;100.00
50103;BME280;35993;52.604;10.078;2023-02-28T05:25:38;102757.03;;;-3.22;100.00
50103;BME280;35993;52.604;10.078;2023-02-28T05:28:04;102750.81;;;-3.21;100.00
50103;BME280;35993;52.604;10.078;2023-02-28T05:30:29;102749.84;;;-3.20;100.00
50103;BME280;35993;52.604;10.078;2023-02-28T05:32:57;102746.63;;;-3.26;100.00
50103;BME280;35993;52.604;10.078;2023-02-28T05:35:23;102756.00;;;-3.37;100.00
50103;BME280;35993;52.604;10.078;2023-02-28T05:37:49;102753.50;;;-3.40;100.00
50103;BME280;35993;52.604;10.078;2023-02-28T05:40:14;102755.38;;;-3.42;100.00
50103;BME280;35993;52.604;10.078;2023-02-28T05:42:41;102759.13;;;-3.46;100.00
50103;BME280;35993;52.604;10.078;2023-02-28T05:45:08;102756.47;;;-3.46;100.00
50103;BME280;35993;52.604;10.078;2023-02-28T05:47:34;102757.75;;;-3.55;100.00
50103;BME280;35993;52.604;10.078;2023-02-28T05:49:59;102752.16;;;-3.49;100.00
50103;BME280;35993;52.604;10.078;2023-02-28T05:52:27;102756.38;;;-3.44;100.00
50103;BME280;35993;52.604;10.078;2023-02-28T05:54:52;102758.56;;;-3.53;100.00
50103;BME280;35993;52.604;10.078;2023-02-28T05:57:18;102756.13;;;-3.57;100.00
50103;BME280;35993;52.604;10.078;2023-02-28T05:59:43;102767.81;;;-3.62;100.00
50103;BME280;35993;52.604;10.078;2023-02-28T06:02:15;102763.66;;;-3.67;100.00
50103;BME280;35993;52.604;10.078;2023-02-28T06:04:42;102766.19;;;-3.64;100.00
50103;BME280;35993;52.604;10.078;2023-02-28T06:07:08;102760.78;;;-3.63;100.00
50103;BME280;35993;52.604;10.078;2023-02-28T06:09:34;102761.78;;;-3.65;100.00
50103;BME280;35993;52.604;10.078;2023-02-28T06:12:01;102764.53;;;-3.67;100.00
50103;BME280;35993;52.604;10.078;2023-02-28T06:14:29;102763.72;;;-3.69;100.00
50103;BME280;35993;52.604;10.078;2023-02-28T06:16:56;102766.31;;;-3.67;100.00
50103;BME280;35993;52.604;10.078;2023-02-28T06:19:22;102775.06;;;-3.65;100.00
50103;BME280;35993;52.604;10.078;2023-02-28T06:21:52;102766.19;;;-3.64;100.00
50103;BME280;35993;52.604;10.078;2023-02-28T06:24:19;102768.84;;;-3.64;100.00
50103;BME280;35993;52.604;10.078;2023-02-28T06:26:45;102767.66;;;-3.58;100.00
50103;BME280;35993;52.604;10.078;2023-02-28T06:29:11;102778.91;;;-3.53;100.00
50103;BME280;35993;52.604;10.078;2023-02-28T06:31:36;102774.41;;;-3.51;100.00
50103;BME280;35993;52.604;10.078;2023-02-28T06:34:04;102778.41;;;-3.42;100.00
50103;BME280;35993;52.604;10.078;2023-02-28T06:36:29;102786.16;;;-3.38;100.00
50103;BME280;35993;52.604;10.078;2023-02-28T06:38:56;102777.13;;;-3.34;100.00
50103;BME280;35993;52.604;10.078;2023-02-28T06:41:26;102785.00;;;-3.32;100.00
50103;BME280;35993;52.604;10.078;2023-02-28T06:43:52;102791.88;;;-3.28;100.00
50103;BME280;35993;52.604;10.078;2023-02-28T06:46:18;102786.09;;;-3.19;100.00
50103;BME280;35993;52.604;10.078;2023-02-28T06:48:44;102798.25;;;-3.13;100.00
50103;BME280;35993;52.604;10.078;2023-02-28T06:51:18;102795.50;;;-3.11;100.00
50103;BME280;35993;52.604;10.078;2023-02-28T06:53:45;102796.59;;;-3.16;100.00
50103;BME280;35993;52.604;10.078;2023-02-28T06:56:13;102799.00;;;-3.11;100.00
50103;BME280;35993;52.604;10.078;2023-02-28T06:58:39;102796.22;;;-3.08;100.00
50103;BME280;35993;52.604;10.078;2023-02-28T07:01:06;102809.13;;;-3.00;100.00
50103;BME280;35993;52.604;10.078;2023-02-28T07:03:32;102804.34;;;-2.93;100.00
50103;BME280;35993;52.604;10.078;2023-02-28T07:05:58;102811.47;;;-2.94;100.00
50103;BME280;35993;52.604;10.078;2023-02-28T07:08:25;102807.84;;;-2.93;100.00
50103;BME280;35993;52.604;10.078;2023-02-28T07:10:53;102811.31;;;-2.91;100.00
50103;BME280;35993;52.604;10.078;2023-02-28T07:13:19;102809.44;;;-2.89;100.00
50103;BME280;35993;52.604;10.078;2023-02-28T07:15:53;102817.03;;;-2.81;100.00
50103;BME280;35993;52.604;10.078;2023-02-28T07:18:18;102821.09;;;-2.74;100.00
50103;BME280;35993;52.604;10.078;2023-02-28T07:20:44;102819.84;;;-2.67;100.00
50103;BME280;35993;52.604;10.078;2023-02-28T07:23:10;102819.44;;;-2.59;100.00
50103;BME280;35993;52.604;10.078;2023-02-28T07:25:35;102823.56;;;-2.53;100.00
50103;BME280;35993;52.604;10.078;2023-02-28T07:28:01;102819.13;;;-2.53;100.00
50103;BME280;35993;52.604;10.078;2023-02-28T07:30:26;102819.75;;;-2.48;100.00
50103;BME280;35993;52.604;10.078;2023-02-28T07:32:52;102820.78;;;-2.33;100.00
50103;BME280;35993;52.604;10.078;2023-02-28T07:35:20;102818.38;;;-2.21;100.00
50103;BME280;35993;52.604;10.078;2023-02-28T07:37:45;102826.91;;;-2.15;100.00
50103;BME280;35993;52.604;10.078;2023-02-28T07:40:12;102823.94;;;-2.08;100.00
50103;BME280;35993;52.604;10.078;2023-02-28T07:42:39;102820.78;;;-1.99;100.00
50103;BME280;35993;52.604;10.078;2023-02-28T07:45:05;102826.44;;;-1.89;100.00
50103;BME280;35993;52.604;10.078;2023-02-28T07:47:31;102824.00;;;-1.76;100.00
50103;BME280;35993;52.604;10.078;2023-02-28T07:49:57;102824.75;;;-1.74;100.00
50103;BME280;35993;52.604;10.078;2023-02-28T07:52:23;102823.81;;;-1.73;100.00
50103;BME280;35993;52.604;10.078;2023-02-28T07:54:50;102820.81;;;-1.67;100.00
50103;BME280;35993;52.604;10.078;2023-02-28T07:57:16;102812.41;;;-1.59;100.00
50103;BME280;35993;52.604;10.078;2023-02-28T07:59:41;102819.63;;;-1.45;100.00
50103;BME280;35993;52.604;10.078;2023-02-28T08:02:12;102820.31;;;-1.42;100.00
50103;BME280;35993;52.604;10.078;2023-02-28T08:04:38;102821.06;;;-1.40;100.00
50103;BME280;35993;52.604;10.078;2023-02-28T08:07:04;102821.31;;;-1.28;100.00
50103;BME280;35993;52.604;10.078;2023-02-28T08:09:30;102826.31;;;-1.22;100.00
50103;BME280;35993;52.604;10.078;2023-02-28T08:11:55;102821.56;;;-1.17;100.00
50103;BME280;35993;52.604;10.078;2023-02-28T08:14:21;102823.69;;;-1.08;100.00
50103;BME280;35993;52.604;10.078;2023-02-28T08:16:49;102823.34;;;-1.02;100.00
50103;BME280;35993;52.604;10.078;2023-02-28T08:19:15;102819.41;;;-0.94;100.00
50103;BME280;35993;52.604;10.078;2023-02-28T08:21:41;102828.72;;;-0.87;100.00
50103;BME280;35993;52.604;10.078;2023-02-28T08:24:06;102830.88;;;-0.78;100.00
50103;BME280;35993;52.604;10.078;2023-02-28T08:26:32;102826.13;;;-0.73;100.00
50103;BME280;35993;52.604;10.078;2023-02-28T08:28:57;102832.63;;;-0.62;100.00
50103;BME280;35993;52.604;10.078;2023-02-28T08:31:23;102828.63;;;-0.55;100.00
50103;BME280;35993;52.604;10.078;2023-02-28T08:33:49;102831.63;;;-0.45;100.00
50103;BME280;35993;52.604;10.078;2023-02-28T08:36:17;102834.59;;;-0.36;100.00
50103;BME280;35993;52.604;10.078;2023-02-28T08:38:43;102834.81;;;-0.24;100.00
50103;BME280;35993;52.604;10.078;2023-02-28T08:41:12;102834.91;;;-0.11;100.00
50103;BME280;35993;52.604;10.078;2023-02-28T08:43:39;102833.41;;;-0.01;100.00
50103;BME280;35993;52.604;10.078;2023-02-28T08:46:05;102836.44;;;0.07;100.00
50103;BME280;35993;52.604;10.078;2023-02-28T08:48:33;102837.31;;;0.08;100.00
50103;BME280;35993;52.604;10.078;2023-02-28T08:51:01;102839.56;;;0.14;100.00
50103;BME280;35993;52.604;10.078;2023-02-28T08:53:27;102841.69;;;0.23;100.00
50103;BME280;35993;52.604;10.078;2023-02-28T08:56:07;102841.50;;;0.26;100.00
50103;BME280;35993;52.604;10.078;2023-02-28T08:58:33;102836.81;;;0.30;99.90
50103;BME280;35993;52.604;10.078;2023-02-28T09:00:59;102846.41;;;0.47;100.00
50103;BME280;35993;52.604;10.078;2023-02-28T09:03:25;102842.31;;;0.56;100.00
50103;BME280;35993;52.604;10.078;2023-02-28T09:05:57;102850.88;;;0.61;99.25
50103;BME280;35993;52.604;10.078;2023-02-28T09:08:24;102842.81;;;0.75;98.83
50103;BME280;35993;52.604;10.078;2023-02-28T09:10:50;102841.75;;;0.78;98.77
50103;BME280;35993;52.604;10.078;2023-02-28T09:13:16;102850.72;;;0.91;98.47
50103;BME280;35993;52.604;10.078;2023-02-28T09:15:42;102854.59;;;1.00;98.48
50103;BME280;35993;52.604;10.078;2023-02-28T09:18:08;102854.59;;;1.00;96.82
50103;BME280;35993;52.604;10.078;2023-02-28T09:20:34;102852.38;;;1.07;96.01
50103;BME280;35993;52.604;10.078;2023-02-28T09:22:59;102851.56;;;1.19;96.07
50103;BME280;35993;52.604;10.078;2023-02-28T09:25:25;102847.41;;;1.28;95.75
50103;BME280;35993;52.604;10.078;2023-02-28T09:27:50;102853.88;;;1.38;95.71
50103;BME280;35993;52.604;10.078;2023-02-28T09:30:16;102850.00;;;1.42;95.20
50103;BME280;35993;52.604;10.078;2023-02-28T09:32:42;102853.66;;;1.54;95.45
50103;BME280;35993;52.604;10.078;2023-02-28T09:35:07;102852.59;;;1.57;95.15
50103;BME280;35993;52.604;10.078;2023-02-28T09:37:38;102847.06;;;1.60;93.73
50103;BME280;35993;52.604;10.078;2023-02-28T09:40:05;102855.94;;;1.73;94.04
50103;BME280;35993;52.604;10.078;2023-02-28T09:42:36;102848.84;;;1.72;93.13
50103;BME280;35993;52.604;10.078;2023-02-28T09:45:07;102857.00;;;1.71;92.56
50103;BME280;35993;52.604;10.078;2023-02-28T09:47:41;102849.94;;;1.83;91.84
50103;BME280;35993;52.604;10.078;2023-02-28T09:50:29;102857.84;;;1.84;92.25
50103;BME280;35993;52.604;10.078;2023-02-28T09:52:59;102849.94;;;1.95;92.40
50103;BME280;35993;52.604;10.078;2023-02-28T09:55:39;102841.81;;;2.10;91.49
50103;BME280;35993;52.604;10.078;2023-02-28T10:00:56;102846.63;;;2.18;88.89
50103;BME280;35993;52.604;10.078;2023-02-28T10:03:29;102838.66;;;2.29;88.54
50103;BME280;35993;52.604;10.078;2023-02-28T10:06:11;102835.97;;;2.42;87.13
50103;BME280;35993;52.604;10.078;2023-02-28T10:08:50;102846.00;;;2.51;87.14
50103;BME280;35993;52.604;10.078;2023-02-28T10:11:17;102843.00;;;2.56;87.41
50103;BME280;35993;52.604;10.078;2023-02-28T10:14:01;102839.53;;;2.67;87.14
50103;BME280;35993;52.604;10.078;2023-02-28T10:16:36;102835.94;;;2.79;86.07
50103;BME280;35993;52.604;10.078;2023-02-28T10:21:49;102836.03;;;2.90;85.28
50103;BME280;35993;52.604;10.078;2023-02-28T10:24:30;102831.03;;;2.97;84.81
50103;BME280;35993;52.604;10.078;2023-02-28T10:27:12;102833.16;;;3.05;84.26
50103;BME280;35993;52.604;10.078;2023-02-28T10:29:43;102835.59;;;3.08;82.87
50103;BME280;35993;52.604;10.078;2023-02-28T10:32:11;102833.41;;;3.13;81.48
50103;BME280;35993;52.604;10.078;2023-02-28T10:34:39;102839.06;;;3.21;81.42
50103;BME280;35993;52.604;10.078;2023-02-28T10:37:05;102838.72;;;3.26;80.64
50103;BME280;35993;52.604;10.078;2023-02-28T10:39:45;102834.84;;;3.41;79.71
50103;BME280;35993;52.604;10.078;2023-02-28T10:42:27;102832.03;;;3.32;78.58
50103;BME280;35993;52.604;10.078;2023-02-28T10:45:13;102831.31;;;3.41;77.26
50103;BME280;35993;52.604;10.078;2023-02-28T10:48:01;102805.94;;;3.45;73.03
50103;BME280;35993;52.604;10.078;2023-02-28T10:55:57;102810.38;;;3.57;69.63
50103;BME280;35993;52.604;10.078;2023-02-28T10:58:25;102805.25;;;3.54;70.86
50103;BME280;35993;52.604;10.078;2023-02-28T11:00:51;102801.41;;;3.34;70.14
50103;BME280;35993;52.604;10.078;2023-02-28T11:03:36;102797.94;;;3.21;71.78
50103;BME280;35993;52.604;10.078;2023-02-28T11:06:07;102803.84;;;3.02;72.28
50103;BME280;35993;52.604;10.078;2023-02-28T11:08:55;102795.25;;;2.85;71.73
50103;BME280;35993;52.604;10.078;2023-02-28T11:11:25;102789.47;;;2.78;70.66
50103;BME280;35993;52.604;10.078;2023-02-28T11:13:54;102786.91;;;2.77;69.70
50103;BME280;35993;52.604;10.078;2023-02-28T11:16:22;102786.72;;;2.80;69.45
50103;BME280;35993;52.604;10.078;2023-02-28T11:18:57;102784.63;;;2.84;70.27
50103;BME280;35993;52.604;10.078;2023-02-28T11:21:31;102794.78;;;2.91;70.44
50103;BME280;35993;52.604;10.078;2023-02-28T11:24:27;102788.19;;;3.20;69.61
50103;BME280;35993;52.604;10.078;2023-02-28T11:26:54;102779.34;;;3.42;68.88
50103;BME280;35993;52.604;10.078;2023-02-28T11:29:21;102774.84;;;3.65;68.33
50103;BME280;35993;52.604;10.078;2023-02-28T11:34:35;102775.47;;;3.69;67.73
50103;BME280;35993;52.604;10.078;2023-02-28T11:37:02;102769.03;;;3.24;67.83
50103;BME280;35993;52.604;10.078;2023-02-28T11:39:32;102780.25;;;3.18;69.38
50103;BME280;35993;52.604;10.078;2023-02-28T11:44:51;102781.88;;;2.97;70.57
50103;BME280;35993;52.604;10.078;2023-02-28T11:50:20;102779.00;;;2.75;71.10
50103;BME280;35993;52.604;10.078;2023-02-28T11:53:19;102784.13;;;2.78;71.02
50103;BME280;35993;52.604;10.078;2023-02-28T11:55:52;102770.59;;;3.16;70.23
50103;BME280;35993;52.604;10.078;2023-02-28T12:07:15;102760.97;;;3.94;68.56
50103;BME280;35993;52.604;10.078;2023-02-28T12:18:27;102744.56;;;3.97;66.42
50103;BME280;35993;52.604;10.078;2023-02-28T12:29:02;102730.38;;;4.18;64.99
50103;BME280;35993;52.604;10.078;2023-02-28T12:31:31;102719.72;;;4.28;65.13
50103;BME280;35993;52.604;10.078;2023-02-28T12:34:04;102725.94;;;4.28;65.59
50103;BME280;35993;52.604;10.078;2023-02-28T12:36:33;102712.78;;;4.25;64.44
50103;BME280;35993;52.604;10.078;2023-02-28T12:39:16;102704.47;;;4.17;63.47
50103;BME280;35993;52.604;10.078;2023-02-28T12:42:00;102704.91;;;4.33;63.03
50103;BME280;35993;52.604;10.078;2023-02-28T12:44:34;102702.66;;;4.50;63.82
50103;BME280;35993;52.604;10.078;2023-02-28T12:47:05;102700.56;;;4.53;63.76
50103;BME280;35993;52.604;10.078;2023-02-28T12:49:39;102701.19;;;4.57;63.91
50103;BME280;35993;52.604;10.078;2023-02-28T12:52:06;102697.88;;;4.53;63.39
50103;BME280;35993;52.604;10.078;2023-02-28T12:55:00;102680.31;;;4.49;61.25
50103;BME280;35993;52.604;10.078;2023-02-28T12:57:50;102678.47;;;4.50;61.74
50103;BME280;35993;52.604;10.078;2023-02-28T13:00:19;102681.47;;;4.56;62.01
50103;BME280;35993;52.604;10.078;2023-02-28T13:14:03;102647.53;;;4.55;61.32
50103;BME280;35993;52.604;10.078;2023-02-28T13:16:50;102651.13;;;4.66;61.53
50103;BME280;35993;52.604;10.078;2023-02-28T13:19:18;102636.38;;;4.81;61.21
50103;BME280;35993;52.604;10.078;2023-02-28T13:21:45;102648.72;;;4.84;61.25
50103;BME280;35993;52.604;10.078;2023-02-28T13:24:11;102649.53;;;4.84;60.93
50103;BME280;35993;52.604;10.078;2023-02-28T13:29:31;102650.06;;;4.57;60.24
50103;BME280;35993;52.604;10.078;2023-02-28T13:35:12;102644.38;;;4.71;60.90
50103;BME280;35993;52.604;10.078;2023-02-28T13:37:35;102636.97;;;4.85;60.11
50103;BME280;35993;52.604;10.078;2023-02-28T13:42:47;102642.59;;;4.82;60.08
50103;BME280;35993;52.604;10.078;2023-02-28T13:45:22;102648.19;;;4.90;59.53
50103;BME280;35993;52.604;10.078;2023-02-28T13:47:52;102640.94;;;4.90;58.72
50103;BME280;35993;52.604;10.078;2023-02-28T13:58:27;102628.03;;;4.84;57.33
50103;BME280;35993;52.604;10.078;2023-02-28T14:06:18;102626.19;;;4.85;57.78
50103;BME280;35993;52.604;10.078;2023-02-28T14:09:00;102613.75;;;4.93;57.35
50103;BME280;35993;52.604;10.078;2023-02-28T14:11:38;102625.72;;;5.01;57.63
50103;BME280;35993;52.604;10.078;2023-02-28T14:14:06;102608.66;;;4.90;57.37
50103;BME280;35993;52.604;10.078;2023-02-28T14:16:46;102617.13;;;4.86;57.24
50103;BME280;35993;52.604;10.078;2023-02-28T14:19:21;102621.97;;;4.92;57.46
50103;BME280;35993;52.604;10.078;2023-02-28T14:22:00;102625.66;;;4.91;58.04
50103;BME280;35993;52.604;10.078;2023-02-28T14:27:08;102622.88;;;5.02;56.90
50103;BME280;35993;52.604;10.078;2023-02-28T14:37:53;102629.13;;;4.82;57.46
50103;BME280;35993;52.604;10.078;2023-02-28T14:40:30;102632.41;;;4.85;57.59
50103;BME280;35993;52.604;10.078;2023-02-28T14:43:00;102619.88;;;4.96;56.98
50103;BME280;35993;52.604;10.078;2023-02-28T14:45:29;102612.19;;;4.91;56.19
50103;BME280;35993;52.604;10.078;2023-02-28T14:47:56;102620.75;;;4.75;56.15
50103;BME280;35993;52.604;10.078;2023-02-28T14:50:25;102620.88;;;4.73;56.28